sensor_id;sensor_type;location;lat;lon;timestamp;temperature;humidity
71994;DHT22;59861;50.268;8.648;2023-08-01T00:02:03;19.90;70.30
71994;DHT22;59861;50.268;8.648;2023-08-01T00:04:29;19.80;69.20
71994;DHT22;59861;50.268;8.648;2023-08-01T00:06:56;19.90;69.30
71994;DHT22;59861;50.268;8.648;2023-08-01T00:09:23;19.90;69.40
71994;DHT22;59861;50.268;8.648;2023-08-01T00:11:50;19.80;69.20
71994;DHT22;59861;50.268;8.648;2023-08-01T00:14:17;19.90;69.40
71994;DHT22;59861;50.268;8.648;2023-08-01T00:16:45;19.90;69.30
71994;DHT22;59861;50.268;8.648;2023-08-01T00:19:12;19.80;69.40
71994;DHT22;59861;50.268;8.648;2023-08-01T00:21:39;19.90;69.30
71994;DHT22;59861;50.268;8.648;2023-08-01T00:24:06;19.90;69.40
71994;DHT22;59861;50.268;8.648;2023-08-01T00:26:34;19.80;69.20
71994;DHT22;59861;50.268;8.648;2023-08-01T00:29:01;19.80;69.20
71994;DHT22;59861;50.268;8.648;2023-08-01T00:31:27;19.80;69.20
71994;DHT22;59861;50.268;8.648;2023-08-01T00:33:54;19.90;69.40
71994;DHT22;59861;50.268;8.648;2023-08-01T00:36:21;19.80;69.20
71994;DHT22;59861;50.268;8.648;2023-08-01T00:38:48;19.80;70.20
71994;DHT22;59861;50.268;8.648;2023-08-01T00:41:15;19.90;69.50
71994;DHT22;59861;50.268;8.648;2023-08-01T00:43:41;19.80;69.20
71994;DHT22;59861;50.268;8.648;2023-08-01T00:46:08;19.80;69.30
71994;DHT22;59861;50.268;8.648;2023-08-01T00:48:35;19.80;69.20
71994;DHT22;59861;50.268;8.648;2023-08-01T00:51:07;19.80;69.30
71994;DHT22;59861;50.268;8.648;2023-08-01T00:53:31;19.80;69.20
71994;DHT22;59861;50.268;8.648;2023-08-01T00:55:58;19.80;69.30
71994;DHT22;59861;50.268;8.648;2023-08-01T00:58:25;19.80;69.30
71994;DHT22;59861;50.268;8.648;2023-08-01T01:00:52;19.80;69.30
71994;DHT22;59861;50.268;8.648;2023-08-01T01:03:18;19.80;69.30
71994;DHT22;59861;50.268;8.648;2023-08-01T01:06:01;19.80;69.30
71994;DHT22;59861;50.268;8.648;2023-08-01T01:08:26;19.80;70.30
71994;DHT22;59861;50.268;8.648;2023-08-01T01:10:53;19.80;69.30
71994;DHT22;59861;50.268;8.648;2023-08-01T01:13:20;19.80;69.20
71994;DHT22;59861;50.268;8.648;2023-08-01T01:15:46;19.80;69.40
71994;DHT22;59861;50.268;8.648;2023-08-01T01:18:13;19.80;69.20
71994;DHT22;59861;50.268;8.648;2023-08-01T01:20:40;19.80;69.40
71994;DHT22;59861;50.268;8.648;2023-08-01T01:23:07;19.80;69.20
71994;DHT22;59861;50.268;8.648;2023-08-01T01:25:34;19.80;69.40
71994;DHT22;59861;50.268;8.648;2023-08-01T01:28:02;19.80;69.40
71994;DHT22;59861;50.268;8.648;2023-08-01T01:30:30;19.80;69.30
71994;DHT22;59861;50.268;8.648;2023-08-01T01:32:59;19.80;69.40
71994;DHT22;59861;50.268;8.648;2023-08-01T01:35:26;19.80;69.20
71994;DHT22;59861;50.268;8.648;2023-08-01T01:37:53;19.80;69.30
71994;DHT22;59861;50.268;8.648;2023-08-01T01:40:20;19.80;69.20
71994;DHT22;59861;50.268;8.648;2023-08-01T01:42:47;19.80;69.20
71994;DHT22;59861;50.268;8.648;2023-08-01T01:45:15;19.80;69.30
71994;DHT22;59861;50.268;8.648;2023-08-01T01:47:42;19.80;69.20
71994;DHT22;59861;50.268;8.648;2023-08-01T01:50:08;19.80;69.30
71994;DHT22;59861;50.268;8.648;2023-08-01T01:52:35;19.80;69.30
71994;DHT22;59861;50.268;8.648;2023-08-01T01:55:03;19.80;69.40
71994;DHT22;59861;50.268;8.648;2023-08-01T02:00:15;19.80;69.30
71994;DHT22;59861;50.268;8.648;2023-08-01T02:02:42;19.80;69.20
71994;DHT22;59861;50.268;8.648;2023-08-01T02:05:09;19.80;69.40
71994;DHT22;59861;50.268;8.648;2023-08-01T02:07:36;19.80;69.40
71994;DHT22;59861;50.268;8.648;2023-08-01T02:10:03;19.80;69.40
71994;DHT22;59861;50.268;8.648;2023-08-01T02:12:30;19.80;69.40
71994;DHT22;59861;50.268;8.648;2023-08-01T02:14:58;19.80;69.40
71994;DHT22;59861;50.268;8.648;2023-08-01T02:17:25;19.80;69.30
71994;DHT22;59861;50.268;8.648;2023-08-01T02:19:51;19.80;69.20
71994;DHT22;59861;50.268;8.648;2023-08-01T02:22:18;19.80;69.20
71994;DHT22;59861;50.268;8.648;2023-08-01T02:24:45;19.80;69.30
71994;DHT22;59861;50.268;8.648;2023-08-01T02:27:12;19.80;69.30
71994;DHT22;59861;50.268;8.648;2023-08-01T02:29:38;19.80;69.30
71994;DHT22;59861;50.268;8.648;2023-08-01T02:32:05;19.80;69.50
71994;DHT22;59861;50.268;8.648;2023-08-01T02:34:32;19.80;69.30
71994;DHT22;59861;50.268;8.648;2023-08-01T02:36:59;19.80;69.30
71994;DHT22;59861;50.268;8.648;2023-08-01T02:39:26;19.80;69.30
71994;DHT22;59861;50.268;8.648;2023-08-01T02:41:53;19.80;69.30
71994;DHT22;59861;50.268;8.648;2023-08-01T02:44:19;19.80;69.40
71994;DHT22;59861;50.268;8.648;2023-08-01T02:46:46;19.80;69.30
71994;DHT22;59861;50.268;8.648;2023-08-01T02:49:13;19.80;69.30
71994;DHT22;59861;50.268;8.648;2023-08-01T02:51:40;19.80;69.40
71994;DHT22;59861;50.268;8.648;2023-08-01T02:54:07;19.80;69.40
71994;DHT22;59861;50.268;8.648;2023-08-01T02:56:33;19.80;69.40
71994;DHT22;59861;50.268;8.648;2023-08-01T02:59:00;19.80;69.40
71994;DHT22;59861;50.268;8.648;2023-08-01T03:01:28;19.80;69.40
71994;DHT22;59861;50.268;8.648;2023-08-01T03:03:55;19.80;69.40
71994;DHT22;59861;50.268;8.648;2023-08-01T03:06:22;19.80;69.40
71994;DHT22;59861;50.268;8.648;2023-08-01T03:08:49;19.80;69.40
71994;DHT22;59861;50.268;8.648;2023-08-01T03:11:17;19.80;69.60
71994;DHT22;59861;50.268;8.648;2023-08-01T03:13:43;19.80;69.30
71994;DHT22;59861;50.268;8.648;2023-08-01T03:16:10;19.80;69.30
71994;DHT22;59861;50.268;8.648;2023-08-01T03:18:37;19.80;69.40
71994;DHT22;59861;50.268;8.648;2023-08-01T03:21:04;19.80;69.40
71994;DHT22;59861;50.268;8.648;2023-08-01T03:23:30;19.80;69.50
71994;DHT22;59861;50.268;8.648;2023-08-01T03:25:57;19.80;69.20
71994;DHT22;59861;50.268;8.648;2023-08-01T03:28:25;19.80;69.40
71994;DHT22;59861;50.268;8.648;2023-08-01T03:30:52;19.80;69.40
71994;DHT22;59861;50.268;8.648;2023-08-01T03:33:20;19.80;69.30
71994;DHT22;59861;50.268;8.648;2023-08-01T03:35:46;19.80;70.10
71994;DHT22;59861;50.268;8.648;2023-08-01T03:38:13;19.80;69.40
71994;DHT22;59861;50.268;8.648;2023-08-01T03:40:40;19.80;69.30
71994;DHT22;59861;50.268;8.648;2023-08-01T03:43:07;19.80;69.30
71994;DHT22;59861;50.268;8.648;2023-08-01T03:45:35;19.80;69.30
71994;DHT22;59861;50.268;8.648;2023-08-01T03:48:02;19.80;69.30
71994;DHT22;59861;50.268;8.648;2023-08-01T03:50:29;19.80;69.30
71994;DHT22;59861;50.268;8.648;2023-08-01T03:52:56;19.80;69.80
71994;DHT22;59861;50.268;8.648;2023-08-01T03:55:22;19.80;69.40
71994;DHT22;59861;50.268;8.648;2023-08-01T03:57:49;19.80;69.30
71994;DHT22;59861;50.268;8.648;2023-08-01T04:00:16;19.80;69.20
71994;DHT22;59861;50.268;8.648;2023-08-01T04:02:44;19.80;69.30
71994;DHT22;59861;50.268;8.648;2023-08-01T04:05:11;19.80;69.30
71994;DHT22;59861;50.268;8.648;2023-08-01T04:07:38;19.80;69.40
71994;DHT22;59861;50.268;8.648;2023-08-01T04:10:05;19.80;69.30
71994;DHT22;59861;50.268;8.648;2023-08-01T04:12:32;19.80;69.40
71994;DHT22;59861;50.268;8.648;2023-08-01T04:14:59;19.80;69.40
71994;DHT22;59861;50.268;8.648;2023-08-01T04:17:26;19.80;69.40
71994;DHT22;59861;50.268;8.648;2023-08-01T04:19:55;19.80;70.20
71994;DHT22;59861;50.268;8.648;2023-08-01T04:22:22;19.80;69.30
71994;DHT22;59861;50.268;8.648;2023-08-01T04:24:48;19.80;69.40
71994;DHT22;59861;50.268;8.648;2023-08-01T04:27:16;19.80;69.40
71994;DHT22;59861;50.268;8.648;2023-08-01T04:29:43;19.80;69.30
71994;DHT22;59861;50.268;8.648;2023-08-01T04:32:10;19.80;69.40
71994;DHT22;59861;50.268;8.648;2023-08-01T04:34:39;19.80;69.30
71994;DHT22;59861;50.268;8.648;2023-08-01T04:37:05;19.80;69.30
71994;DHT22;59861;50.268;8.648;2023-08-01T04:39:32;19.80;69.30
71994;DHT22;59861;50.268;8.648;2023-08-01T04:41:59;19.80;69.30
71994;DHT22;59861;50.268;8.648;2023-08-01T04:44:26;19.80;69.20
71994;DHT22;59861;50.268;8.648;2023-08-01T04:46:53;19.80;69.30
71994;DHT22;59861;50.268;8.648;2023-08-01T04:49:20;19.80;69.40
71994;DHT22;59861;50.268;8.648;2023-08-01T04:51:48;19.80;69.20
71994;DHT22;59861;50.268;8.648;2023-08-01T04:54:15;19.80;69.40
71994;DHT22;59861;50.268;8.648;2023-08-01T04:56:42;19.80;69.30
71994;DHT22;59861;50.268;8.648;2023-08-01T04:59:08;19.80;69.30
71994;DHT22;59861;50.268;8.648;2023-08-01T05:01:35;19.80;69.30
71994;DHT22;59861;50.268;8.648;2023-08-01T05:04:02;19.80;69.20
71994;DHT22;59861;50.268;8.648;2023-08-01T05:06:29;19.80;69.30
71994;DHT22;59861;50.268;8.648;2023-08-01T05:08:56;19.80;69.40
71994;DHT22;59861;50.268;8.648;2023-08-01T05:11:22;19.80;69.30
71994;DHT22;59861;50.268;8.648;2023-08-01T05:13:49;19.80;69.40
71994;DHT22;59861;50.268;8.648;2023-08-01T05:16:16;19.80;69.40
71994;DHT22;59861;50.268;8.648;2023-08-01T05:18:43;19.80;69.40
71994;DHT22;59861;50.268;8.648;2023-08-01T05:21:10;19.80;69.50
71994;DHT22;59861;50.268;8.648;2023-08-01T05:23:36;19.80;69.40
71994;DHT22;59861;50.268;8.648;2023-08-01T05:26:03;19.80;69.60
71994;DHT22;59861;50.268;8.648;2023-08-01T05:28:30;19.80;69.40
71994;DHT22;59861;50.268;8.648;2023-08-01T05:30:57;19.70;69.50
71994;DHT22;59861;50.268;8.648;2023-08-01T05:33:24;19.80;69.50
71994;DHT22;59861;50.268;8.648;2023-08-01T05:35:50;19.80;69.60
71994;DHT22;59861;50.268;8.648;2023-08-01T05:38:17;19.80;69.50
71994;DHT22;59861;50.268;8.648;2023-08-01T05:40:44;19.80;69.60
71994;DHT22;59861;50.268;8.648;2023-08-01T05:43:11;19.80;69.40
71994;DHT22;59861;50.268;8.648;2023-08-01T05:45:38;19.80;69.50
71994;DHT22;59861;50.268;8.648;2023-08-01T05:48:05;19.80;69.40
71994;DHT22;59861;50.268;8.648;2023-08-01T05:50:32;19.80;69.40
71994;DHT22;59861;50.268;8.648;2023-08-01T05:52:59;19.80;70.50
71994;DHT22;59861;50.268;8.648;2023-08-01T05:55:25;19.80;69.50
71994;DHT22;59861;50.268;8.648;2023-08-01T05:57:52;19.80;69.60
71994;DHT22;59861;50.268;8.648;2023-08-01T06:00:19;19.80;69.60
71994;DHT22;59861;50.268;8.648;2023-08-01T06:02:47;19.70;69.50
71994;DHT22;59861;50.268;8.648;2023-08-01T06:05:14;19.80;69.60
71994;DHT22;59861;50.268;8.648;2023-08-01T06:07:41;19.80;69.60
71994;DHT22;59861;50.268;8.648;2023-08-01T06:10:08;19.80;70.60
71994;DHT22;59861;50.268;8.648;2023-08-01T06:12:35;19.80;69.60
71994;DHT22;59861;50.268;8.648;2023-08-01T06:15:02;19.80;69.50
71994;DHT22;59861;50.268;8.648;2023-08-01T06:17:29;19.80;69.60
71994;DHT22;59861;50.268;8.648;2023-08-01T06:19:56;19.80;69.60
71994;DHT22;59861;50.268;8.648;2023-08-01T06:22:22;19.80;69.70
71994;DHT22;59861;50.268;8.648;2023-08-01T06:24:49;19.70;69.60
71994;DHT22;59861;50.268;8.648;2023-08-01T06:27:16;19.80;69.70
71994;DHT22;59861;50.268;8.648;2023-08-01T06:29:43;19.80;69.60
71994;DHT22;59861;50.268;8.648;2023-08-01T06:32:10;19.80;69.70
71994;DHT22;59861;50.268;8.648;2023-08-01T06:34:37;19.80;69.70
71994;DHT22;59861;50.268;8.648;2023-08-01T06:37:04;19.80;69.70
71994;DHT22;59861;50.268;8.648;2023-08-01T06:39:31;19.80;69.70
71994;DHT22;59861;50.268;8.648;2023-08-01T06:41:57;19.80;69.80
71994;DHT22;59861;50.268;8.648;2023-08-01T06:44:24;19.80;69.70
71994;DHT22;59861;50.268;8.648;2023-08-01T06:46:51;19.80;69.80
71994;DHT22;59861;50.268;8.648;2023-08-01T06:49:18;19.80;69.70
71994;DHT22;59861;50.268;8.648;2023-08-01T06:51:44;19.80;69.70
71994;DHT22;59861;50.268;8.648;2023-08-01T06:54:11;19.80;69.60
71994;DHT22;59861;50.268;8.648;2023-08-01T06:56:38;19.80;69.60
71994;DHT22;59861;50.268;8.648;2023-08-01T06:59:05;19.80;69.70
71994;DHT22;59861;50.268;8.648;2023-08-01T07:01:32;19.70;68.80
71994;DHT22;59861;50.268;8.648;2023-08-01T07:04:00;19.80;69.60
71994;DHT22;59861;50.268;8.648;2023-08-01T07:06:27;19.80;69.50
71994;DHT22;59861;50.268;8.648;2023-08-01T07:08:54;19.80;69.60
71994;DHT22;59861;50.268;8.648;2023-08-01T07:11:23;19.80;69.50
71994;DHT22;59861;50.268;8.648;2023-08-01T07:13:49;19.80;69.50
71994;DHT22;59861;50.268;8.648;2023-08-01T07:16:16;19.80;69.60
71994;DHT22;59861;50.268;8.648;2023-08-01T07:18:43;19.80;69.60
71994;DHT22;59861;50.268;8.648;2023-08-01T07:21:10;19.80;69.60
71994;DHT22;59861;50.268;8.648;2023-08-01T07:23:37;19.80;69.60
71994;DHT22;59861;50.268;8.648;2023-08-01T07:26:03;19.80;69.70
71994;DHT22;59861;50.268;8.648;2023-08-01T07:28:30;19.80;69.50
71994;DHT22;59861;50.268;8.648;2023-08-01T07:30:57;19.80;69.60
71994;DHT22;59861;50.268;8.648;2023-08-01T07:33:24;19.80;69.50
71994;DHT22;59861;50.268;8.648;2023-08-01T07:35:51;19.80;69.50
71994;DHT22;59861;50.268;8.648;2023-08-01T07:38:18;19.80;69.60
71994;DHT22;59861;50.268;8.648;2023-08-01T07:40:45;19.80;69.50
71994;DHT22;59861;50.268;8.648;2023-08-01T07:43:12;19.80;69.40
71994;DHT22;59861;50.268;8.648;2023-08-01T07:45:38;19.80;70.40
71994;DHT22;59861;50.268;8.648;2023-08-01T07:48:05;19.80;69.50
71994;DHT22;59861;50.268;8.648;2023-08-01T07:50:32;19.80;69.60
71994;DHT22;59861;50.268;8.648;2023-08-01T07:52:59;19.80;69.60
71994;DHT22;59861;50.268;8.648;2023-08-01T07:55:26;19.80;69.60
71994;DHT22;59861;50.268;8.648;2023-08-01T07:57:52;19.80;69.60
71994;DHT22;59861;50.268;8.648;2023-08-01T08:00:19;19.70;69.50
71994;DHT22;59861;50.268;8.648;2023-08-01T08:02:46;19.80;69.60
71994;DHT22;59861;50.268;8.648;2023-08-01T08:05:13;19.80;69.60
71994;DHT22;59861;50.268;8.648;2023-08-01T08:07:40;19.80;69.60
71994;DHT22;59861;50.268;8.648;2023-08-01T08:10:07;19.80;69.60
71994;DHT22;59861;50.268;8.648;2023-08-01T08:12:34;19.80;69.50
71994;DHT22;59861;50.268;8.648;2023-08-01T08:15:01;19.80;69.60
71994;DHT22;59861;50.268;8.648;2023-08-01T08:17:28;19.80;69.40
71994;DHT22;59861;50.268;8.648;2023-08-01T08:19:55;19.80;69.60
71994;DHT22;59861;50.268;8.648;2023-08-01T08:22:21;19.80;69.50
71994;DHT22;59861;50.268;8.648;2023-08-01T08:24:48;19.80;69.50
71994;DHT22;59861;50.268;8.648;2023-08-01T08:27:15;19.80;69.50
71994;DHT22;59861;50.268;8.648;2023-08-01T08:29:42;19.80;69.60
71994;DHT22;59861;50.268;8.648;2023-08-01T08:32:09;19.80;69.50
71994;DHT22;59861;50.268;8.648;2023-08-01T08:34:35;19.80;70.10
71994;DHT22;59861;50.268;8.648;2023-08-01T08:37:02;19.80;69.40
71994;DHT22;59861;50.268;8.648;2023-08-01T08:39:29;19.80;69.40
71994;DHT22;59861;50.268;8.648;2023-08-01T08:41:56;19.80;69.50
71994;DHT22;59861;50.268;8.648;2023-08-01T08:44:23;19.80;69.40
71994;DHT22;59861;50.268;8.648;2023-08-01T08:46:52;19.80;69.40
71994;DHT22;59861;50.268;8.648;2023-08-01T08:49:19;19.80;69.40
71994;DHT22;59861;50.268;8.648;2023-08-01T08:51:47;19.80;69.40
71994;DHT22;59861;50.268;8.648;2023-08-01T08:54:15;19.80;69.40
71994;DHT22;59861;50.268;8.648;2023-08-01T08:56:42;19.80;69.40
71994;DHT22;59861;50.268;8.648;2023-08-01T08:59:09;19.80;69.30
71994;DHT22;59861;50.268;8.648;2023-08-01T09:01:37;19.80;69.30
71994;DHT22;59861;50.268;8.648;2023-08-01T09:04:04;19.80;69.30
71994;DHT22;59861;50.268;8.648;2023-08-01T09:06:40;19.80;69.30
71994;DHT22;59861;50.268;8.648;2023-08-01T09:09:09;19.80;69.40
71994;DHT22;59861;50.268;8.648;2023-08-01T09:11:44;19.80;69.40
71994;DHT22;59861;50.268;8.648;2023-08-01T09:14:11;19.80;69.40
71994;DHT22;59861;50.268;8.648;2023-08-01T09:16:39;19.80;69.30
71994;DHT22;59861;50.268;8.648;2023-08-01T09:19:06;19.80;69.40
71994;DHT22;59861;50.268;8.648;2023-08-01T09:21:34;19.80;69.40
71994;DHT22;59861;50.268;8.648;2023-08-01T09:24:08;19.80;69.40
71994;DHT22;59861;50.268;8.648;2023-08-01T09:26:35;19.80;69.40
71994;DHT22;59861;50.268;8.648;2023-08-01T09:29:02;19.80;69.40
71994;DHT22;59861;50.268;8.648;2023-08-01T09:31:37;19.80;69.40
71994;DHT22;59861;50.268;8.648;2023-08-01T09:34:01;19.80;70.30
71994;DHT22;59861;50.268;8.648;2023-08-01T09:36:29;19.80;69.40
71994;DHT22;59861;50.268;8.648;2023-08-01T09:39:00;19.80;69.40
71994;DHT22;59861;50.268;8.648;2023-08-01T09:41:28;19.80;69.40
71994;DHT22;59861;50.268;8.648;2023-08-01T09:43:55;19.80;69.40
71994;DHT22;59861;50.268;8.648;2023-08-01T09:46:22;19.80;69.40
71994;DHT22;59861;50.268;8.648;2023-08-01T09:48:49;19.80;69.40
71994;DHT22;59861;50.268;8.648;2023-08-01T09:51:17;19.80;69.40
71994;DHT22;59861;50.268;8.648;2023-08-01T09:53:51;19.80;69.40
71994;DHT22;59861;50.268;8.648;2023-08-01T09:56:23;19.80;69.40
71994;DHT22;59861;50.268;8.648;2023-08-01T09:58:50;19.80;69.40
71994;DHT22;59861;50.268;8.648;2023-08-01T10:01:19;19.80;69.40
71994;DHT22;59861;50.268;8.648;2023-08-01T10:03:46;19.80;69.50
71994;DHT22;59861;50.268;8.648;2023-08-01T10:06:18;19.80;69.40
71994;DHT22;59861;50.268;8.648;2023-08-01T10:08:47;19.80;69.50
71994;DHT22;59861;50.268;8.648;2023-08-01T10:11:16;19.80;69.40
71994;DHT22;59861;50.268;8.648;2023-08-01T10:13:43;19.80;69.40
71994;DHT22;59861;50.268;8.648;2023-08-01T10:16:11;19.80;69.40
71994;DHT22;59861;50.268;8.648;2023-08-01T10:18:38;19.80;69.40
71994;DHT22;59861;50.268;8.648;2023-08-01T10:21:09;19.80;69.80
71994;DHT22;59861;50.268;8.648;2023-08-01T10:23:37;19.80;69.40
71994;DHT22;59861;50.268;8.648;2023-08-01T10:26:09;19.80;69.40
71994;DHT22;59861;50.268;8.648;2023-08-01T10:28:33;19.80;69.40
71994;DHT22;59861;50.268;8.648;2023-08-01T10:31:21;19.80;69.50
71994;DHT22;59861;50.268;8.648;2023-08-01T10:33:32;19.90;69.50
71994;DHT22;59861;50.268;8.648;2023-08-01T10:35:57;19.90;69.50
71994;DHT22;59861;50.268;8.648;2023-08-01T10:38:23;19.90;69.60
71994;DHT22;59861;50.268;8.648;2023-08-01T10:40:50;19.90;69.50
71994;DHT22;59861;50.268;8.648;2023-08-01T10:43:23;19.90;69.60
71994;DHT22;59861;50.268;8.648;2023-08-01T10:46:00;19.90;69.60
71994;DHT22;59861;50.268;8.648;2023-08-01T10:48:28;19.90;69.50
71994;DHT22;59861;50.268;8.648;2023-08-01T10:50:55;19.90;69.50
71994;DHT22;59861;50.268;8.648;2023-08-01T10:53:23;19.90;69.50
71994;DHT22;59861;50.268;8.648;2023-08-01T10:55:50;19.90;69.60
71994;DHT22;59861;50.268;8.648;2023-08-01T10:58:17;19.90;69.60
71994;DHT22;59861;50.268;8.648;2023-08-01T11:00:44;19.90;69.60
71994;DHT22;59861;50.268;8.648;2023-08-01T11:03:11;19.90;69.70
71994;DHT22;59861;50.268;8.648;2023-08-01T11:05:37;19.90;70.60
71994;DHT22;59861;50.268;8.648;2023-08-01T11:08:04;19.90;69.50
71994;DHT22;59861;50.268;8.648;2023-08-01T11:10:32;19.90;69.50
71994;DHT22;59861;50.268;8.648;2023-08-01T11:12:59;19.90;70.60
71994;DHT22;59861;50.268;8.648;2023-08-01T11:15:26;19.90;69.70
71994;DHT22;59861;50.268;8.648;2023-08-01T11:17:53;19.90;69.60
71994;DHT22;59861;50.268;8.648;2023-08-01T11:20:21;19.90;69.50
71994;DHT22;59861;50.268;8.648;2023-08-01T11:23:06;19.90;69.50
71994;DHT22;59861;50.268;8.648;2023-08-01T11:25:21;19.90;69.50
71994;DHT22;59861;50.268;8.648;2023-08-01T11:27:48;19.90;69.50
71994;DHT22;59861;50.268;8.648;2023-08-01T11:30:15;19.90;69.50
71994;DHT22;59861;50.268;8.648;2023-08-01T11:32:41;19.90;69.50
71994;DHT22;59861;50.268;8.648;2023-08-01T11:35:08;19.90;69.50
71994;DHT22;59861;50.268;8.648;2023-08-01T11:37:35;19.90;69.50
71994;DHT22;59861;50.268;8.648;2023-08-01T11:40:02;19.90;69.50
71994;DHT22;59861;50.268;8.648;2023-08-01T11:42:30;19.90;69.50
71994;DHT22;59861;50.268;8.648;2023-08-01T11:45:07;19.90;69.50
71994;DHT22;59861;50.268;8.648;2023-08-01T11:47:34;19.90;69.50
71994;DHT22;59861;50.268;8.648;2023-08-01T11:50:01;19.90;69.40
71994;DHT22;59861;50.268;8.648;2023-08-01T11:52:28;19.90;69.50
71994;DHT22;59861;50.268;8.648;2023-08-01T11:54:55;19.90;69.50
71994;DHT22;59861;50.268;8.648;2023-08-01T11:57:22;19.90;69.60
71994;DHT22;59861;50.268;8.648;2023-08-01T11:59:54;19.90;69.40
71994;DHT22;59861;50.268;8.648;2023-08-01T12:02:23;19.90;69.50
71994;DHT22;59861;50.268;8.648;2023-08-01T12:04:51;19.90;69.50
71994;DHT22;59861;50.268;8.648;2023-08-01T12:07:18;19.90;69.60
71994;DHT22;59861;50.268;8.648;2023-08-01T12:09:55;19.90;69.50
71994;DHT22;59861;50.268;8.648;2023-08-01T12:12:13;19.90;69.60
71994;DHT22;59861;50.268;8.648;2023-08-01T12:14:41;19.90;69.50
71994;DHT22;59861;50.268;8.648;2023-08-01T12:17:08;19.90;69.50
71994;DHT22;59861;50.268;8.648;2023-08-01T12:19:35;19.90;69.50
71994;DHT22;59861;50.268;8.648;2023-08-01T12:22:01;19.90;69.40
71994;DHT22;59861;50.268;8.648;2023-08-01T12:24:28;19.90;69.60
71994;DHT22;59861;50.268;8.648;2023-08-01T12:26:55;19.90;69.40
71994;DHT22;59861;50.268;8.648;2023-08-01T12:29:22;19.90;69.60
71994;DHT22;59861;50.268;8.648;2023-08-01T12:31:49;19.90;69.40
71994;DHT22;59861;50.268;8.648;2023-08-01T12:34:15;19.90;69.50
71994;DHT22;59861;50.268;8.648;2023-08-01T12:36:42;19.90;69.60
71994;DHT22;59861;50.268;8.648;2023-08-01T12:39:09;19.90;69.50
71994;DHT22;59861;50.268;8.648;2023-08-01T12:41:37;19.90;69.70
71994;DHT22;59861;50.268;8.648;2023-08-01T12:44:04;19.90;69.70
71994;DHT22;59861;50.268;8.648;2023-08-01T12:46:31;19.90;69.70
71994;DHT22;59861;50.268;8.648;2023-08-01T12:48:58;19.90;69.60
71994;DHT22;59861;50.268;8.648;2023-08-01T12:51:25;19.90;69.60
71994;DHT22;59861;50.268;8.648;2023-08-01T12:53:52;19.90;69.70
71994;DHT22;59861;50.268;8.648;2023-08-01T12:56:18;19.90;69.60
71994;DHT22;59861;50.268;8.648;2023-08-01T12:58:45;19.90;69.60
71994;DHT22;59861;50.268;8.648;2023-08-01T13:01:12;19.90;69.60
71994;DHT22;59861;50.268;8.648;2023-08-01T13:03:39;19.90;69.60
71994;DHT22;59861;50.268;8.648;2023-08-01T13:06:06;19.90;69.70
71994;DHT22;59861;50.268;8.648;2023-08-01T13:08:32;19.90;69.70
71994;DHT22;59861;50.268;8.648;2023-08-01T13:10:59;19.90;69.70
71994;DHT22;59861;50.268;8.648;2023-08-01T13:13:26;19.90;69.60
71994;DHT22;59861;50.268;8.648;2023-08-01T13:15:53;19.90;69.70
71994;DHT22;59861;50.268;8.648;2023-08-01T13:18:20;19.90;69.70
71994;DHT22;59861;50.268;8.648;2023-08-01T13:20:46;19.90;69.60
71994;DHT22;59861;50.268;8.648;2023-08-01T13:23:13;19.90;69.70
71994;DHT22;59861;50.268;8.648;2023-08-01T13:25:40;19.90;69.60
71994;DHT22;59861;50.268;8.648;2023-08-01T13:28:07;19.90;69.60
71994;DHT22;59861;50.268;8.648;2023-08-01T13:30:34;19.90;69.70
71994;DHT22;59861;50.268;8.648;2023-08-01T13:33:01;19.90;69.70
71994;DHT22;59861;50.268;8.648;2023-08-01T13:35:29;19.90;69.60
71994;DHT22;59861;50.268;8.648;2023-08-01T13:37:56;19.90;69.70
71994;DHT22;59861;50.268;8.648;2023-08-01T13:40:24;19.90;69.70
71994;DHT22;59861;50.268;8.648;2023-08-01T13:42:51;19.90;69.60
71994;DHT22;59861;50.268;8.648;2023-08-01T13:45:18;19.90;69.60
71994;DHT22;59861;50.268;8.648;2023-08-01T13:47:44;19.90;69.80
71994;DHT22;59861;50.268;8.648;2023-08-01T13:50:11;19.90;69.70
71994;DHT22;59861;50.268;8.648;2023-08-01T13:52:38;19.90;69.60
71994;DHT22;59861;50.268;8.648;2023-08-01T13:55:05;19.90;69.70
71994;DHT22;59861;50.268;8.648;2023-08-01T13:57:33;19.90;69.70
71994;DHT22;59861;50.268;8.648;2023-08-01T14:00:00;19.90;69.80
71994;DHT22;59861;50.268;8.648;2023-08-01T14:02:26;19.90;69.70
71994;DHT22;59861;50.268;8.648;2023-08-01T14:04:55;19.90;70.00
71994;DHT22;59861;50.268;8.648;2023-08-01T14:07:22;19.90;69.90
71994;DHT22;59861;50.268;8.648;2023-08-01T14:09:48;19.90;70.00
71994;DHT22;59861;50.268;8.648;2023-08-01T14:12:15;19.90;70.00
71994;DHT22;59861;50.268;8.648;2023-08-01T14:14:44;19.90;70.00
71994;DHT22;59861;50.268;8.648;2023-08-01T14:17:10;19.90;70.10
71994;DHT22;59861;50.268;8.648;2023-08-01T14:19:37;19.90;70.10
71994;DHT22;59861;50.268;8.648;2023-08-01T14:22:04;19.90;70.20
71994;DHT22;59861;50.268;8.648;2023-08-01T14:24:31;19.90;70.20
71994;DHT22;59861;50.268;8.648;2023-08-01T14:26:58;19.90;70.30
71994;DHT22;59861;50.268;8.648;2023-08-01T14:29:26;19.90;70.30
71994;DHT22;59861;50.268;8.648;2023-08-01T14:31:53;19.90;70.40
71994;DHT22;59861;50.268;8.648;2023-08-01T14:34:20;19.90;70.30
71994;DHT22;59861;50.268;8.648;2023-08-01T14:36:47;20.00;70.40
71994;DHT22;59861;50.268;8.648;2023-08-01T14:39:14;19.90;70.50
71994;DHT22;59861;50.268;8.648;2023-08-01T14:41:40;20.00;70.60
71994;DHT22;59861;50.268;8.648;2023-08-01T14:44:07;20.00;70.60
71994;DHT22;59861;50.268;8.648;2023-08-01T14:46:35;20.00;70.50
71994;DHT22;59861;50.268;8.648;2023-08-01T14:49:02;20.00;70.70
71994;DHT22;59861;50.268;8.648;2023-08-01T14:51:29;20.00;70.70
71994;DHT22;59861;50.268;8.648;2023-08-01T14:53:56;20.00;70.70
71994;DHT22;59861;50.268;8.648;2023-08-01T14:56:23;20.00;70.80
71994;DHT22;59861;50.268;8.648;2023-08-01T14:58:49;20.00;70.70
71994;DHT22;59861;50.268;8.648;2023-08-01T15:01:16;20.00;70.80
71994;DHT22;59861;50.268;8.648;2023-08-01T15:03:45;20.00;70.80
71994;DHT22;59861;50.268;8.648;2023-08-01T15:06:12;20.00;70.80
71994;DHT22;59861;50.268;8.648;2023-08-01T15:08:40;20.00;70.80
71994;DHT22;59861;50.268;8.648;2023-08-01T15:11:08;20.00;70.90
71994;DHT22;59861;50.268;8.648;2023-08-01T15:13:35;20.00;71.40
71994;DHT22;59861;50.268;8.648;2023-08-01T15:16:02;20.00;71.00
71994;DHT22;59861;50.268;8.648;2023-08-01T15:18:28;20.00;71.00
71994;DHT22;59861;50.268;8.648;2023-08-01T15:20:55;20.00;71.10
71994;DHT22;59861;50.268;8.648;2023-08-01T15:23:22;20.00;71.20
71994;DHT22;59861;50.268;8.648;2023-08-01T15:25:55;20.00;71.10
71994;DHT22;59861;50.268;8.648;2023-08-01T15:28:22;20.00;71.00
71994;DHT22;59861;50.268;8.648;2023-08-01T15:30:50;20.10;71.10
71994;DHT22;59861;50.268;8.648;2023-08-01T15:33:18;20.00;71.10